createdAt,value
2022-11-10T00:01:56.171Z,90.87
2022-11-10T00:04:42.761Z,91.17
2022-11-10T00:07:29.368Z,91.01
2022-11-10T00:10:16.077Z,90.94
2022-11-10T00:13:02.960Z,91.10
2022-11-10T00:16:08.233Z,91.39
2022-11-10T00:18:54.537Z,91.17
2022-11-10T00:21:41.234Z,90.78
2022-11-10T00:24:28.865Z,90.80
2022-11-10T00:27:15.478Z,90.09
2022-11-10T00:30:03.005Z,89.98
2022-11-10T00:32:49.613Z,89.61
2022-11-10T00:35:35.911Z,89.99
2022-11-10T00:38:22.625Z,90.11
2022-11-10T00:41:09.323Z,89.59
2022-11-10T00:43:55.724Z,89.38
2022-11-10T00:46:42.390Z,89.43
2022-11-10T00:49:28.953Z,89.68
2022-11-10T00:52:15.443Z,89.65
2022-11-10T00:55:02.252Z,89.06
2022-11-10T00:57:49.269Z,88.60
2022-11-10T01:00:35.672Z,88.53
2022-11-10T01:03:23.147Z,88.94
2022-11-10T01:06:14.864Z,89.34
2022-11-10T01:09:01.327Z,89.15
2022-11-10T01:11:47.525Z,88.61
2022-11-10T01:14:33.824Z,88.84
2022-11-10T01:17:20.386Z,89.35
2022-11-10T01:20:08.560Z,89.25
2022-11-10T01:22:55.077Z,89.56
2022-11-10T01:25:41.377Z,89.69
2022-11-10T01:28:29.118Z,89.94
2022-11-10T01:31:17.056Z,90.15
2022-11-10T01:34:03.959Z,90.13
2022-11-10T01:36:50.333Z,89.95
2022-11-10T01:39:36.811Z,89.78
2022-11-10T01:42:27.104Z,89.33
2022-11-10T01:45:23.220Z,89.46
2022-11-10T01:48:12.866Z,89.61
2022-11-10T01:51:01.728Z,89.64
2022-11-10T01:53:54.722Z,89.83
2022-11-10T01:56:44.257Z,89.13
2022-11-10T01:59:32.958Z,89.39
2022-11-10T02:02:28.625Z,89.73
2022-11-10T02:05:15.647Z,89.41
2022-11-10T02:08:02.619Z,89.56
2022-11-10T02:10:49.068Z,89.57
2022-11-10T02:13:35.775Z,89.47
2022-11-10T02:16:23.019Z,89.97
2022-11-10T02:19:18.670Z,90.28
2022-11-10T02:22:04.919Z,89.97
2022-11-10T02:24:51.605Z,90.27
2022-11-10T02:27:38.054Z,90.58
2022-11-10T02:30:27.678Z,90.70
2022-11-10T02:33:17.806Z,90.92
2022-11-10T02:36:04.825Z,91.09
2022-11-10T02:38:51.213Z,91.03
2022-11-10T02:41:38.135Z,91.01
2022-11-10T02:44:24.530Z,90.83
2022-11-10T02:47:11.135Z,90.56
2022-11-10T02:49:57.537Z,90.41
2022-11-10T02:52:44.166Z,90.33
2022-11-10T02:55:30.543Z,90.27
2022-11-10T02:58:17.046Z,90.33
2022-11-10T03:01:05.747Z,90.06
2022-11-10T03:03:52.206Z,90.09
2022-11-10T03:06:38.672Z,90.08
2022-11-10T03:09:25.320Z,90.06
2022-11-10T03:12:11.773Z,90.09
2022-11-10T03:14:58.126Z,90.31
2022-11-10T03:17:45.029Z,90.98
2022-11-10T03:20:31.622Z,91.12
2022-11-10T03:23:18.444Z,91.30
2022-11-10T03:26:05.333Z,91.34
2022-11-10T03:28:52.076Z,91.24
2022-11-10T03:31:38.886Z,91.32
2022-11-10T03:34:29.425Z,91.20
2022-11-10T03:37:18.032Z,91.25
2022-11-10T03:40:04.865Z,91.10
2022-11-10T03:42:51.452Z,91.05
2022-11-10T03:45:38.066Z,91.03
2022-11-10T03:48:24.671Z,91.01
2022-11-10T03:51:10.962Z,90.81
2022-11-10T03:53:57.576Z,90.63
2022-11-10T03:56:44.285Z,90.62
2022-11-10T03:59:30.782Z,90.57
2022-11-10T04:02:17.510Z,90.51
2022-11-10T04:05:24.074Z,90.39
2022-11-10T04:08:34.326Z,90.31
2022-11-10T04:11:40.158Z,90.35
2022-11-10T04:14:45.334Z,90.33
2022-11-10T04:17:31.782Z,90.36
2022-11-10T04:20:18.250Z,90.37
2022-11-10T04:23:23.732Z,90.67
2022-11-10T04:26:29.735Z,90.53
2022-11-10T04:29:17.597Z,90.49
2022-11-10T04:32:04.404Z,90.48
2022-11-10T04:34:51.410Z,90.67
2022-11-10T04:37:38.003Z,90.66
2022-11-10T04:40:24.626Z,90.19
2022-11-10T04:43:10.816Z,89.92
2022-11-10T04:45:57.633Z,89.73
2022-11-10T04:48:43.720Z,89.71
2022-11-10T04:51:31.758Z,89.87
2022-11-10T04:54:18.438Z,89.87
2022-11-10T04:57:04.980Z,89.45
2022-11-10T04:59:51.795Z,89.46
2022-11-10T05:02:39.706Z,89.67
2022-11-10T05:05:27.046Z,89.69
2022-11-10T05:08:13.695Z,89.77
2022-11-10T05:11:00.368Z,90.19
2022-11-10T05:13:47.181Z,90.67
2022-11-10T05:16:33.685Z,90.60
2022-11-10T05:19:20.097Z,90.83
2022-11-10T05:22:07.799Z,90.94
2022-11-10T05:24:54.007Z,91.04
2022-11-10T05:27:40.834Z,91.19
2022-11-10T05:30:27.426Z,91.26
2022-11-10T05:33:14.237Z,91.10
2022-11-10T05:36:02.074Z,90.94
2022-11-10T05:38:48.897Z,90.86
2022-11-10T05:41:35.305Z,90.69
2022-11-10T05:44:21.635Z,90.50
2022-11-10T05:47:09.060Z,90.50
2022-11-10T05:49:55.514Z,90.55
2022-11-10T05:52:50.035Z,90.48
2022-11-10T05:55:37.337Z,90.34
2022-11-10T05:58:23.927Z,90.44
2022-11-10T06:01:10.644Z,90.43
2022-11-10T06:03:56.884Z,90.39
2022-11-10T06:06:43.436Z,90.20
2022-11-10T06:09:30.356Z,89.97
2022-11-10T06:12:16.974Z,89.60
2022-11-10T06:15:04.319Z,89.48
2022-11-10T06:17:51.294Z,89.62
2022-11-10T06:20:37.819Z,89.64
2022-11-10T06:23:25.075Z,89.59
2022-11-10T06:26:12.255Z,89.47
2022-11-10T06:28:58.561Z,89.35
2022-11-10T06:31:45.270Z,89.29
2022-11-10T06:34:31.689Z,89.26
2022-11-10T06:37:18.175Z,89.23
2022-11-10T06:40:09.621Z,89.13
2022-11-10T06:42:56.756Z,89.10
2022-11-10T06:45:43.210Z,89.27
2022-11-10T06:48:29.616Z,89.47
2022-11-10T06:51:16.227Z,89.60
2022-11-10T06:54:02.670Z,89.69
2022-11-10T06:56:49.360Z,89.57
2022-11-10T06:59:36.144Z,89.35
2022-11-10T07:02:22.865Z,89.52
2022-11-10T07:05:09.310Z,89.45
2022-11-10T07:07:55.755Z,89.55
2022-11-10T07:10:43.075Z,89.73
2022-11-10T07:13:29.885Z,90.02
2022-11-10T07:16:19.356Z,89.93
2022-11-10T07:19:10.080Z,89.83
2022-11-10T07:21:56.796Z,89.64
2022-11-10T07:24:43.633Z,89.26
2022-11-10T07:27:30.709Z,89.08
2022-11-10T07:30:17.833Z,88.96
2022-11-10T07:33:29.459Z,88.93
2022-11-10T07:36:16.661Z,88.98
2022-11-10T07:39:03.851Z,89.05
2022-11-10T07:41:52.667Z,88.89
2022-11-10T07:44:40.054Z,88.71
2022-11-10T07:47:26.751Z,88.31
2022-11-10T07:50:13.091Z,87.95
2022-11-10T07:53:20.403Z,88.01
2022-11-10T07:56:07.463Z,88.55
2022-11-10T07:58:53.974Z,88.58
2022-11-10T08:01:40.528Z,88.43
2022-11-10T08:04:26.874Z,88.30
2022-11-10T08:07:13.263Z,88.41
2022-11-10T08:09:59.753Z,88.32
2022-11-10T08:12:46.062Z,88.07
2022-11-10T08:15:33.192Z,87.89
2022-11-10T08:18:20.902Z,87.86
2022-11-10T08:21:07.439Z,87.89
2022-11-10T08:23:54.146Z,87.84
2022-11-10T08:26:40.643Z,87.65
2022-11-10T08:29:26.981Z,87.56
2022-11-10T08:32:13.774Z,87.25
2022-11-10T08:35:00.372Z,86.61
2022-11-10T08:37:47.179Z,86.27
2022-11-10T08:40:34.033Z,86.27
2022-11-10T08:43:20.789Z,86.56
2022-11-10T08:46:08.231Z,86.08
2022-11-10T08:48:54.622Z,85.56
2022-11-10T08:51:41.411Z,85.62
2022-11-10T08:54:27.926Z,85.77
2022-11-10T08:57:14.750Z,85.93
2022-11-10T09:00:01.572Z,85.76
2022-11-10T09:02:48.057Z,85.59
2022-11-10T09:05:36.418Z,85.52
2022-11-10T09:08:23.231Z,85.34
2022-11-10T09:11:10.006Z,85.10
2022-11-10T09:13:56.639Z,84.68
2022-11-10T09:16:43.475Z,84.96
2022-11-10T09:19:30.193Z,85.21
2022-11-10T09:22:17.075Z,84.88
2022-11-10T09:25:03.948Z,85.04
2022-11-10T09:27:50.669Z,85.20
2022-11-10T09:30:37.583Z,85.20
2022-11-10T09:33:24.383Z,85.00
2022-11-10T09:36:12.016Z,84.71
2022-11-10T09:38:58.726Z,84.85
2022-11-10T09:41:45.569Z,84.78
2022-11-10T09:44:46.839Z,84.68
2022-11-10T09:48:02.707Z,84.62
2022-11-10T09:50:55.227Z,84.47
2022-11-10T09:53:44.828Z,84.32
2022-11-10T09:56:33.464Z,84.23
2022-11-10T09:59:24.812Z,83.83
2022-11-10T10:02:13.024Z,83.93
2022-11-10T10:05:15.311Z,84.22
2022-11-10T10:08:20.142Z,84.06
2022-11-10T10:11:07.651Z,84.11
2022-11-10T10:14:17.797Z,84.12
2022-11-10T10:17:18.559Z,83.82
2022-11-10T10:20:12.866Z,83.70
2022-11-10T10:23:04.344Z,83.43
2022-11-10T10:25:54.824Z,83.22
2022-11-10T10:28:44.397Z,83.23
2022-11-10T10:31:34.611Z,83.01
2022-11-10T10:34:23.683Z,82.77
2022-11-10T10:37:23.718Z,82.56
2022-11-10T10:40:14.826Z,82.59
2022-11-10T10:43:01.547Z,82.51
2022-11-10T10:46:02.990Z,82.57
2022-11-10T10:49:27.296Z,82.69
2022-11-10T10:52:12.138Z,82.68
2022-11-10T10:55:05.923Z,82.74
2022-11-10T10:57:57.217Z,82.77
2022-11-10T11:00:45.168Z,82.65
2022-11-10T11:03:37.511Z,82.88
2022-11-10T11:06:27.507Z,82.98
2022-11-10T11:09:20.015Z,82.60
2022-11-10T11:12:08.377Z,82.79
2022-11-10T11:15:16.710Z,82.90
2022-11-10T11:18:10.487Z,82.98
2022-11-10T11:21:02.928Z,83.07
2022-11-10T11:23:58.037Z,82.86
2022-11-10T11:27:03.588Z,82.58
2022-11-10T11:29:59.512Z,82.60
2022-11-10T11:33:04.645Z,82.70
2022-11-10T11:36:14.882Z,82.45
2022-11-10T11:39:01.408Z,82.36
2022-11-10T11:41:59.188Z,82.46
2022-11-10T11:45:01.055Z,82.63
2022-11-10T11:48:06.303Z,82.81
2022-11-10T11:50:59.351Z,82.70
2022-11-10T11:53:52.206Z,82.53
2022-11-10T11:56:43.570Z,82.72
2022-11-10T11:59:33.497Z,82.95
2022-11-10T12:02:29.081Z,83.01
2022-11-10T12:05:36.827Z,82.91
2022-11-10T12:08:35.718Z,82.81
2022-11-10T12:11:22.422Z,82.86
2022-11-10T12:14:28.263Z,82.66
2022-11-10T12:17:33.319Z,82.92
2022-11-10T12:20:38.568Z,83.00
2022-11-10T12:23:34.697Z,82.97
2022-11-10T12:26:39.740Z,82.88
2022-11-10T12:29:36.355Z,82.77
2022-11-10T12:32:25.861Z,82.78
2022-11-10T12:35:14.301Z,82.81
2022-11-10T12:38:04.275Z,82.78
2022-11-10T12:40:53.145Z,82.88
2022-11-10T12:43:41.542Z,82.91
2022-11-10T12:46:28.508Z,82.92
2022-11-10T12:49:33.949Z,82.95
2022-11-10T12:52:40.943Z,82.89
2022-11-10T12:55:57.245Z,82.94
2022-11-10T12:58:43.849Z,83.07
2022-11-10T13:01:30.428Z,83.26
2022-11-10T13:04:18.945Z,83.29
2022-11-10T13:07:11.844Z,83.23
2022-11-10T13:10:15.692Z,83.19
2022-11-10T13:13:05.262Z,83.30
2022-11-10T13:15:54.181Z,83.57
2022-11-10T13:18:40.855Z,83.73
2022-11-10T13:21:46.462Z,83.67
2022-11-10T13:24:40.161Z,83.73
2022-11-10T13:27:36.014Z,83.75
2022-11-10T13:30:43.580Z,83.50
2022-11-10T13:33:31.605Z,83.38
2022-11-10T13:36:36.187Z,83.38
2022-11-10T13:39:23.161Z,83.47
2022-11-10T13:42:09.814Z,83.47
2022-11-10T13:45:16.950Z,83.35
2022-11-10T13:48:12.809Z,83.26
2022-11-10T13:51:18.324Z,83.25
2022-11-10T13:54:10.769Z,83.16
2022-11-10T13:56:57.358Z,83.18
2022-11-10T13:59:55.581Z,83.33
2022-11-10T14:02:45.174Z,83.40
2022-11-10T14:05:33.943Z,83.39
2022-11-10T14:08:23.802Z,83.54
2022-11-10T14:11:16.210Z,83.55
2022-11-10T14:14:11.106Z,83.60
2022-11-10T14:16:58.208Z,83.78
2022-11-10T14:19:45.706Z,83.87
2022-11-10T14:22:38.801Z,83.77
2022-11-10T14:25:28.385Z,83.70
2022-11-10T14:28:27.585Z,83.80
2022-11-10T14:31:26.587Z,83.88
2022-11-10T14:34:17.287Z,83.90
2022-11-10T14:37:04.397Z,83.91
2022-11-10T14:39:55.919Z,83.90
2022-11-10T14:42:44.780Z,83.86
2022-11-10T14:45:31.391Z,83.90
2022-11-10T14:48:20.387Z,83.88
2022-11-10T14:51:07.224Z,84.05
2022-11-10T14:53:54.487Z,83.95
2022-11-10T14:56:42.745Z,83.98
2022-11-10T14:59:29.759Z,84.07
2022-11-10T15:02:17.711Z,84.11
2022-11-10T15:05:05.412Z,84.31
2022-11-10T15:07:54.068Z,84.41
2022-11-10T15:10:40.567Z,84.28
2022-11-10T15:13:27.037Z,84.34
2022-11-10T15:16:22.593Z,84.43
2022-11-10T15:19:23.124Z,84.48
2022-11-10T15:22:15.986Z,84.41
2022-11-10T15:25:22.777Z,84.55
2022-11-10T15:28:12.341Z,84.56
2022-11-10T15:31:00.850Z,84.93
2022-11-10T15:33:49.454Z,85.05
2022-11-10T15:36:39.736Z,85.15
2022-11-10T15:39:27.455Z,85.35
2022-11-10T15:42:16.329Z,85.30
2022-11-10T15:45:02.527Z,85.20
2022-11-10T15:47:49.535Z,84.91
2022-11-10T15:50:36.549Z,84.90
2022-11-10T15:53:28.591Z,85.03
2022-11-10T15:56:20.208Z,84.97
2022-11-10T15:59:06.916Z,85.19
2022-11-10T16:01:53.704Z,85.41
2022-11-10T16:04:40.132Z,85.77
2022-11-10T16:07:26.759Z,85.74
2022-11-10T16:10:13.452Z,85.70
2022-11-10T16:12:59.962Z,85.74
2022-11-10T16:15:46.865Z,85.85
2022-11-10T16:18:33.184Z,85.65
2022-11-10T16:21:21.621Z,85.67
2022-11-10T16:24:08.438Z,85.60
2022-11-10T16:26:55.140Z,85.67
2022-11-10T16:29:42.251Z,85.81
2022-11-10T16:32:28.808Z,85.76
2022-11-10T16:35:16.395Z,85.63
2022-11-10T16:38:03.300Z,85.48
2022-11-10T16:40:54.655Z,85.45
2022-11-10T16:43:41.333Z,85.49
2022-11-10T16:46:30.799Z,85.48
2022-11-10T16:49:28.446Z,85.41
2022-11-10T16:52:15.862Z,85.33
2022-11-10T16:55:02.446Z,85.27
2022-11-10T16:57:49.439Z,85.16
2022-11-10T17:00:36.250Z,85.24
2022-11-10T17:03:58.670Z,85.20
2022-11-10T17:06:45.452Z,85.24
2022-11-10T17:09:31.716Z,85.08
2022-11-10T17:12:18.315Z,85.22
2022-11-10T17:15:05.519Z,85.33
2022-11-10T17:17:54.682Z,85.31
2022-11-10T17:20:42.590Z,85.26
2022-11-10T17:23:29.432Z,85.30
2022-11-10T17:26:18.597Z,85.23
2022-11-10T17:29:05.300Z,85.18
2022-11-10T17:31:53.040Z,85.13
2022-11-10T17:34:39.533Z,85.01
2022-11-10T17:37:26.518Z,84.96
2022-11-10T17:40:20.795Z,85.05
2022-11-10T17:43:30.900Z,84.89
2022-11-10T17:46:17.295Z,84.88
2022-11-10T17:49:04.215Z,84.86
2022-11-10T17:51:51.539Z,84.97
2022-11-10T17:54:38.526Z,84.87
2022-11-10T17:57:25.892Z,84.96
2022-11-10T18:00:12.896Z,85.06
2022-11-10T18:02:59.151Z,85.06
2022-11-10T18:05:45.699Z,85.06
2022-11-10T18:08:32.401Z,85.13
2022-11-10T18:11:21.624Z,85.20
2022-11-10T18:14:09.512Z,85.33
2022-11-10T18:16:56.936Z,85.46
2022-11-10T18:19:43.630Z,85.36
2022-11-10T18:22:33.529Z,85.50
2022-11-10T18:25:20.034Z,85.69
2022-11-10T18:28:07.713Z,85.77
2022-11-10T18:30:56.006Z,85.90
2022-11-10T18:33:42.612Z,86.08
2022-11-10T18:36:28.707Z,86.14
2022-11-10T18:39:15.321Z,86.39
2022-11-10T18:42:02.123Z,86.66
2022-11-10T18:44:51.500Z,86.90
2022-11-10T18:47:37.853Z,87.05
2022-11-10T18:50:25.639Z,87.18
2022-11-10T18:53:12.031Z,87.39
2022-11-10T18:55:58.644Z,87.51
2022-11-10T18:58:45.805Z,87.57
2022-11-10T19:01:33.327Z,87.89
2022-11-10T19:04:20.919Z,88.03
2022-11-10T19:07:09.239Z,88.03
2022-11-10T19:09:55.873Z,87.98
2022-11-10T19:12:43.747Z,87.94
2022-11-10T19:15:33.429Z,88.05
2022-11-10T19:18:19.994Z,88.15
2022-11-10T19:21:14.233Z,88.25
2022-11-10T19:24:01.187Z,88.35
2022-11-10T19:26:51.591Z,88.29
2022-11-10T19:29:40.052Z,88.47
2022-11-10T19:32:26.515Z,88.35
2022-11-10T19:35:13.652Z,88.37
2022-11-10T19:37:59.863Z,88.41
2022-11-10T19:40:46.606Z,88.56
2022-11-10T19:43:33.583Z,88.85
2022-11-10T19:46:21.919Z,88.92
2022-11-10T19:49:08.628Z,88.93
2022-11-10T19:51:55.657Z,88.80
2022-11-10T19:54:43.603Z,88.70
2022-11-10T19:57:30.011Z,88.66
2022-11-10T20:00:17.105Z,88.56
2022-11-10T20:03:03.415Z,88.32
2022-11-10T20:05:59.184Z,87.54
2022-11-10T20:08:47.891Z,87.79
2022-11-10T20:11:35.520Z,87.92
2022-11-10T20:14:24.064Z,88.12
2022-11-10T20:17:11.837Z,88.28
2022-11-10T20:19:58.815Z,88.25
2022-11-10T20:22:45.533Z,88.31
2022-11-10T20:25:33.225Z,88.32
2022-11-10T20:28:19.993Z,88.37
2022-11-10T20:31:10.635Z,88.33
2022-11-10T20:33:58.809Z,88.29
2022-11-10T20:36:46.345Z,88.37
2022-11-10T20:39:32.841Z,88.29
2022-11-10T20:42:20.077Z,88.58
2022-11-10T20:45:10.295Z,88.90
2022-11-10T20:47:57.535Z,88.70
2022-11-10T20:50:43.727Z,88.93
2022-11-10T20:53:30.095Z,88.50
2022-11-10T20:56:16.885Z,87.44
2022-11-10T20:59:04.463Z,86.77
2022-11-10T21:01:51.981Z,87.39
2022-11-10T21:04:42.812Z,87.61
2022-11-10T21:07:29.981Z,87.73
2022-11-10T21:10:16.529Z,87.95
2022-11-10T21:13:03.185Z,88.15
2022-11-10T21:15:54.299Z,88.44
2022-11-10T21:18:43.173Z,88.27
2022-11-10T21:21:35.145Z,88.90
2022-11-10T21:24:21.792Z,89.43
2022-11-10T21:27:10.250Z,89.32
2022-11-10T21:29:56.547Z,89.43
2022-11-10T21:32:43.264Z,89.35
2022-11-10T21:35:32.875Z,89.55
2022-11-10T21:38:23.197Z,89.54
2022-11-10T21:41:10.105Z,89.29
2022-11-10T21:43:58.592Z,89.12
2022-11-10T21:46:45.843Z,89.16
2022-11-10T21:49:34.663Z,89.06
2022-11-10T21:52:21.270Z,88.94
2022-11-10T21:55:08.183Z,88.76
2022-11-10T21:57:58.092Z,88.76
2022-11-10T22:00:44.674Z,88.87
2022-11-10T22:03:31.897Z,88.96
2022-11-10T22:06:18.861Z,89.15
2022-11-10T22:09:05.212Z,89.12
2022-11-10T22:12:10.042Z,89.10
2022-11-10T22:15:17.027Z,89.20
2022-11-10T22:18:22.594Z,89.32
2022-11-10T22:21:09.286Z,89.42
2022-11-10T22:24:14.441Z,89.41
2022-11-10T22:27:04.669Z,89.27
2022-11-10T22:29:51.208Z,89.47
2022-11-10T22:32:37.784Z,89.60
2022-11-10T22:35:43.102Z,89.93
2022-11-10T22:38:30.561Z,89.96
2022-11-10T22:41:36.304Z,89.80
2022-11-10T22:44:25.200Z,89.88
2022-11-10T22:47:12.078Z,89.65
2022-11-10T22:49:58.587Z,89.52
2022-11-10T22:52:44.882Z,89.65
2022-11-10T22:55:31.903Z,89.62
2022-11-10T22:58:18.811Z,89.87
2022-11-10T23:01:09.566Z,90.22
2022-11-10T23:03:59.630Z,90.46
2022-11-10T23:06:46.220Z,90.30
2022-11-10T23:09:34.970Z,90.14
2022-11-10T23:12:21.467Z,90.15
2022-11-10T23:15:08.496Z,90.66
2022-11-10T23:17:55.218Z,91.32
2022-11-10T23:20:41.597Z,91.34
2022-11-10T23:23:29.132Z,90.77
2022-11-10T23:26:17.671Z,91.18
2022-11-10T23:29:04.331Z,91.24
2022-11-10T23:31:50.991Z,90.93
2022-11-10T23:34:37.402Z,91.18
2022-11-10T23:37:24.213Z,90.36
2022-11-10T23:40:11.446Z,90.50
2022-11-10T23:42:58.063Z,91.02
2022-11-10T23:46:05.803Z,91.14
2022-11-10T23:48:50.849Z,91.34
2022-11-10T23:51:37.196Z,91.28
2022-11-10T23:54:23.598Z,91.01
2022-11-10T23:57:09.904Z,91.21
2022-11-10T23:59:56.094Z,90.85
